Impacts METAR Board
IDs:

KEWR - Newark Intl, NJ, US

Updated at: 2000 UTC 22 Apr 2018
Potential Impact None Slight Moderate High
Time 22/08Z 22/09Z 22/10Z 22/11Z 22/12Z 22/13Z 22/14Z 22/15Z 22/16Z 22/17Z 22/18Z 22/19Z 22/20Z
Temp48 46 44 46 50 54 58 60 62 64 66 66 68
Dewpt20 19 18 20 22 26 30 32 34 34 36 36 38
Altim30.39 30.38 30.39 30.41 30.41 30.42 30.42 30.41 30.39 30.37 30.36 30.34 30.32
VIS10 10 10 10 10 10 10 10 10 10 10 10 10
CIG-- -- -- -- -- -- -- -- -- -- -- -- --
CoverSCTSCTFEWFEWFEWFEWFEWFEWFEWFEWSCTSCTSCT
FltCatVFRVFRVFRVFRVFRVFRVFRVFRVFRVFRVFRVFRVFR
WX--------------------------
WDir340340350027026003103400300320320
WSpd7 8 3 0 3 4 4 8 9 4 4 5 11
WGst-- -- -- -- -- -- -- -- -- -- 18 -- 14
Raw hourly METARs
KEWR 220751Z 34007KT 10SM SCT250 09/M07 A3039 RMK AO2 SLP288 T00891067
KEWR 220851Z 34008KT 10SM SCT250 08/M07 A3038 RMK AO2 SLP286 T00781072 50004
KEWR 220951Z 35003KT 10SM FEW250 07/M08 A3039 RMK AO2 SLP288 T00671078
KEWR 221051Z 00000KT 10SM FEW250 08/M07 A3041 RMK AO2 SLP297 T00781067
KEWR 221151Z 27003KT 10SM FEW250 10/M06 A3041 RMK AO2 SLP298 T01001056 10106 20056 51012
KEWR 221251Z 26004KT 10SM FEW250 12/M03 A3042 RMK AO2 SLP299 T01221033
KEWR 221351Z VRB04KT 10SM FEW250 14/M01 A3042 RMK AO2 SLP299 T01441011
KEWR 221451Z 31008KT 10SM FEW250 16/00 A3041 RMK AO2 SLP297 T01560000 58001
KEWR 221551Z 34009KT 10SM FEW250 17/01 A3039 RMK AO2 SLP291 T01670011
KEWR 221651Z COR VRB04KT 10SM FEW250 18/01 A3037 RMK AO2 SLP283 T01780011
KEWR 221751Z 30004G18KT 10SM SCT250 19/02 A3036 RMK AO2 SLP280 T01890022 10189 20100 56018
KEWR 221851Z 32005KT 10SM SCT250 19/02 A3034 RMK AO2 SLP273 T01890022
KEWR 221951Z 32011G14KT 10SM SCT250 20/03 A3032 RMK AO2 SLP266 T02000033



Page loaded:  20:24 UTC  |   01:24 PM Pacific  |   02:24 PM Mountain  |   03:24 PM Central  |   04:24 PM Eastern

 

ADVISORIES

FORECASTS

FORECASTS

OBSERVATIONS

USER TOOLS

ABOUT US